sensor_id;sensor_type;location;lat;lon;timestamp;temperature;humidity
4207;DHT22;2117;47.972;7.830;2022-12-07T02:32:40;4.70;99.90
4207;DHT22;2117;47.972;7.830;2022-12-07T02:35:09;4.70;99.90
4207;DHT22;2117;47.972;7.830;2022-12-07T02:40:38;4.70;99.90
4207;DHT22;2117;47.972;7.830;2022-12-07T02:43:16;4.60;99.90
4207;DHT22;2117;47.972;7.830;2022-12-07T02:45:44;4.70;99.90
4207;DHT22;2117;47.972;7.830;2022-12-07T02:48:14;4.60;99.90
4207;DHT22;2117;47.972;7.830;2022-12-07T02:50:59;4.70;99.90
4207;DHT22;2117;47.972;7.830;2022-12-07T02:53:40;4.70;99.90
4207;DHT22;2117;47.972;7.830;2022-12-07T02:59:29;4.70;99.90
4207;DHT22;2117;47.972;7.830;2022-12-07T03:10:27;4.60;99.90
4207;DHT22;2117;47.972;7.830;2022-12-07T03:18:54;4.60;99.90
4207;DHT22;2117;47.972;7.830;2022-12-07T03:21:31;4.60;99.90
4207;DHT22;2117;47.972;7.830;2022-12-07T03:23:59;4.60;99.90
4207;DHT22;2117;47.972;7.830;2022-12-07T03:26:32;4.50;99.90
4207;DHT22;2117;47.972;7.830;2022-12-07T03:29:02;4.50;99.90
4207;DHT22;2117;47.972;7.830;2022-12-07T03:31:33;4.60;99.90
4207;DHT22;2117;47.972;7.830;2022-12-07T03:34:07;4.60;99.90
4207;DHT22;2117;47.972;7.830;2022-12-07T03:36:43;4.60;99.90
4207;DHT22;2117;47.972;7.830;2022-12-07T03:41:59;4.60;99.90
4207;DHT22;2117;47.972;7.830;2022-12-07T03:44:26;4.50;99.90
4207;DHT22;2117;47.972;7.830;2022-12-07T03:53:04;4.50;99.90
4207;DHT22;2117;47.972;7.830;2022-12-07T03:55:33;4.60;99.90
4207;DHT22;2117;47.972;7.830;2022-12-07T03:58:05;4.60;99.90
4207;DHT22;2117;47.972;7.830;2022-12-07T04:00:32;4.50;99.90
4207;DHT22;2117;47.972;7.830;2022-12-07T04:02:58;4.50;99.90
4207;DHT22;2117;47.972;7.830;2022-12-07T04:05:24;4.60;99.90
4207;DHT22;2117;47.972;7.830;2022-12-07T04:07:50;4.60;99.90
4207;DHT22;2117;47.972;7.830;2022-12-07T04:10:15;4.50;99.90
4207;DHT22;2117;47.972;7.830;2022-12-07T04:12:41;4.50;99.90
4207;DHT22;2117;47.972;7.830;2022-12-07T04:15:07;4.40;99.90
4207;DHT22;2117;47.972;7.830;2022-12-07T04:17:33;4.40;99.90
4207;DHT22;2117;47.972;7.830;2022-12-07T04:19:58;4.30;99.90
4207;DHT22;2117;47.972;7.830;2022-12-07T04:22:24;4.20;99.90
4207;DHT22;2117;47.972;7.830;2022-12-07T04:24:49;4.30;99.90
4207;DHT22;2117;47.972;7.830;2022-12-07T04:27:15;4.30;99.90
4207;DHT22;2117;47.972;7.830;2022-12-07T04:29:40;4.20;99.90
4207;DHT22;2117;47.972;7.830;2022-12-07T04:32:06;4.20;99.90
4207;DHT22;2117;47.972;7.830;2022-12-07T04:34:32;4.20;99.90
4207;DHT22;2117;47.972;7.830;2022-12-07T04:36:57;4.20;99.90
4207;DHT22;2117;47.972;7.830;2022-12-07T04:39:31;4.20;99.90
4207;DHT22;2117;47.972;7.830;2022-12-07T04:41:58;4.20;99.90
4207;DHT22;2117;47.972;7.830;2022-12-07T04:44:24;4.20;99.90
4207;DHT22;2117;47.972;7.830;2022-12-07T04:46:51;4.20;99.90
4207;DHT22;2117;47.972;7.830;2022-12-07T04:49:17;4.30;99.90
4207;DHT22;2117;47.972;7.830;2022-12-07T04:51:43;4.30;99.90
4207;DHT22;2117;47.972;7.830;2022-12-07T04:54:09;4.20;99.90
4207;DHT22;2117;47.972;7.830;2022-12-07T04:56:36;4.20;99.90
4207;DHT22;2117;47.972;7.830;2022-12-07T04:59:02;4.20;99.90
4207;DHT22;2117;47.972;7.830;2022-12-07T05:01:28;4.10;99.90
4207;DHT22;2117;47.972;7.830;2022-12-07T05:03:54;4.10;99.90
4207;DHT22;2117;47.972;7.830;2022-12-07T05:06:19;4.10;99.90
4207;DHT22;2117;47.972;7.830;2022-12-07T05:08:45;4.10;99.90
4207;DHT22;2117;47.972;7.830;2022-12-07T05:11:12;4.00;99.90
4207;DHT22;2117;47.972;7.830;2022-12-07T05:14:01;4.00;99.90
4207;DHT22;2117;47.972;7.830;2022-12-07T05:16:27;3.90;99.90
4207;DHT22;2117;47.972;7.830;2022-12-07T05:18:53;3.90;99.90
4207;DHT22;2117;47.972;7.830;2022-12-07T05:21:18;4.00;99.90
4207;DHT22;2117;47.972;7.830;2022-12-07T05:23:44;4.00;99.90
4207;DHT22;2117;47.972;7.830;2022-12-07T05:26:09;4.00;99.90
4207;DHT22;2117;47.972;7.830;2022-12-07T05:28:35;3.90;99.90
4207;DHT22;2117;47.972;7.830;2022-12-07T05:31:00;3.90;99.90
4207;DHT22;2117;47.972;7.830;2022-12-07T05:33:26;3.80;99.90
4207;DHT22;2117;47.972;7.830;2022-12-07T05:35:52;3.90;99.90
4207;DHT22;2117;47.972;7.830;2022-12-07T05:38:17;3.90;99.90
4207;DHT22;2117;47.972;7.830;2022-12-07T05:40:43;3.90;99.90
4207;DHT22;2117;47.972;7.830;2022-12-07T05:43:08;3.90;99.90
4207;DHT22;2117;47.972;7.830;2022-12-07T05:45:34;3.90;99.90
4207;DHT22;2117;47.972;7.830;2022-12-07T05:47:59;3.90;99.90
4207;DHT22;2117;47.972;7.830;2022-12-07T05:50:25;4.00;99.90
4207;DHT22;2117;47.972;7.830;2022-12-07T05:52:50;4.00;99.90
4207;DHT22;2117;47.972;7.830;2022-12-07T05:55:16;4.00;99.90
4207;DHT22;2117;47.972;7.830;2022-12-07T05:57:42;4.10;99.90
4207;DHT22;2117;47.972;7.830;2022-12-07T06:00:27;4.00;99.90
4207;DHT22;2117;47.972;7.830;2022-12-07T06:02:52;4.00;99.90
4207;DHT22;2117;47.972;7.830;2022-12-07T06:05:18;4.00;99.90
4207;DHT22;2117;47.972;7.830;2022-12-07T06:07:43;4.00;99.90
4207;DHT22;2117;47.972;7.830;2022-12-07T06:10:09;3.90;99.90
4207;DHT22;2117;47.972;7.830;2022-12-07T06:12:35;3.90;99.90
4207;DHT22;2117;47.972;7.830;2022-12-07T06:15:01;3.90;99.90
4207;DHT22;2117;47.972;7.830;2022-12-07T06:17:26;3.80;99.90
4207;DHT22;2117;47.972;7.830;2022-12-07T06:19:52;3.80;99.90
4207;DHT22;2117;47.972;7.830;2022-12-07T06:22:18;3.80;99.90
4207;DHT22;2117;47.972;7.830;2022-12-07T06:24:43;3.70;99.90
4207;DHT22;2117;47.972;7.830;2022-12-07T06:27:09;3.70;99.90
4207;DHT22;2117;47.972;7.830;2022-12-07T06:29:35;3.80;99.90
4207;DHT22;2117;47.972;7.830;2022-12-07T06:32:01;3.70;99.90
4207;DHT22;2117;47.972;7.830;2022-12-07T06:34:26;3.60;99.90
4207;DHT22;2117;47.972;7.830;2022-12-07T06:36:53;3.50;99.90
4207;DHT22;2117;47.972;7.830;2022-12-07T06:39:22;3.50;99.90
4207;DHT22;2117;47.972;7.830;2022-12-07T06:41:48;3.50;99.90
4207;DHT22;2117;47.972;7.830;2022-12-07T06:44:14;3.40;99.90
4207;DHT22;2117;47.972;7.830;2022-12-07T06:46:40;3.30;99.90
4207;DHT22;2117;47.972;7.830;2022-12-07T06:49:06;3.30;99.90
4207;DHT22;2117;47.972;7.830;2022-12-07T06:51:32;3.20;99.90
4207;DHT22;2117;47.972;7.830;2022-12-07T06:53:58;3.10;99.90
4207;DHT22;2117;47.972;7.830;2022-12-07T06:56:24;3.10;99.90
4207;DHT22;2117;47.972;7.830;2022-12-07T06:58:50;3.00;99.90
4207;DHT22;2117;47.972;7.830;2022-12-07T07:01:17;3.00;99.90
4207;DHT22;2117;47.972;7.830;2022-12-07T07:03:44;3.00;99.90
4207;DHT22;2117;47.972;7.830;2022-12-07T07:06:11;3.00;99.90
4207;DHT22;2117;47.972;7.830;2022-12-07T07:08:37;3.00;99.90
4207;DHT22;2117;47.972;7.830;2022-12-07T07:11:03;2.90;99.90
4207;DHT22;2117;47.972;7.830;2022-12-07T07:13:29;2.90;99.90
4207;DHT22;2117;47.972;7.830;2022-12-07T07:15:55;2.90;99.90
4207;DHT22;2117;47.972;7.830;2022-12-07T07:18:21;2.90;99.90
4207;DHT22;2117;47.972;7.830;2022-12-07T07:20:47;2.90;99.90
4207;DHT22;2117;47.972;7.830;2022-12-07T07:23:13;2.80;99.90
4207;DHT22;2117;47.972;7.830;2022-12-07T07:25:38;2.80;99.90
4207;DHT22;2117;47.972;7.830;2022-12-07T07:28:04;2.80;99.90
4207;DHT22;2117;47.972;7.830;2022-12-07T07:30:30;2.80;99.90
4207;DHT22;2117;47.972;7.830;2022-12-07T07:33:00;2.80;99.90
4207;DHT22;2117;47.972;7.830;2022-12-07T07:35:27;2.80;99.90
4207;DHT22;2117;47.972;7.830;2022-12-07T07:37:52;2.80;99.90
4207;DHT22;2117;47.972;7.830;2022-12-07T07:40:18;2.80;99.90
4207;DHT22;2117;47.972;7.830;2022-12-07T07:42:46;2.80;99.90
4207;DHT22;2117;47.972;7.830;2022-12-07T07:45:11;2.80;99.90
4207;DHT22;2117;47.972;7.830;2022-12-07T07:47:37;2.70;99.90
4207;DHT22;2117;47.972;7.830;2022-12-07T07:50:03;2.70;99.90
4207;DHT22;2117;47.972;7.830;2022-12-07T07:52:28;2.70;99.90
4207;DHT22;2117;47.972;7.830;2022-12-07T07:54:54;2.70;99.90
4207;DHT22;2117;47.972;7.830;2022-12-07T07:57:19;2.60;99.90
4207;DHT22;2117;47.972;7.830;2022-12-07T07:59:45;2.60;99.90
4207;DHT22;2117;47.972;7.830;2022-12-07T08:02:15;2.60;99.90
4207;DHT22;2117;47.972;7.830;2022-12-07T08:04:42;2.50;99.90
4207;DHT22;2117;47.972;7.830;2022-12-07T08:07:07;2.50;99.90
4207;DHT22;2117;47.972;7.830;2022-12-07T08:09:33;2.60;99.90
4207;DHT22;2117;47.972;7.830;2022-12-07T08:11:58;2.50;99.90
4207;DHT22;2117;47.972;7.830;2022-12-07T08:14:24;2.50;99.90
4207;DHT22;2117;47.972;7.830;2022-12-07T08:16:50;2.50;99.90
4207;DHT22;2117;47.972;7.830;2022-12-07T08:19:16;2.50;99.90
4207;DHT22;2117;47.972;7.830;2022-12-07T08:21:42;2.50;99.90
4207;DHT22;2117;47.972;7.830;2022-12-07T08:24:07;2.40;99.90
4207;DHT22;2117;47.972;7.830;2022-12-07T08:26:33;2.40;99.90
4207;DHT22;2117;47.972;7.830;2022-12-07T08:28:59;2.40;99.90
4207;DHT22;2117;47.972;7.830;2022-12-07T08:31:24;2.40;99.90
4207;DHT22;2117;47.972;7.830;2022-12-07T08:33:50;2.30;99.90
4207;DHT22;2117;47.972;7.830;2022-12-07T08:36:17;2.30;99.90
4207;DHT22;2117;47.972;7.830;2022-12-07T08:38:42;2.30;99.90
4207;DHT22;2117;47.972;7.830;2022-12-07T08:41:08;2.40;99.90
4207;DHT22;2117;47.972;7.830;2022-12-07T08:43:35;2.50;99.90
4207;DHT22;2117;47.972;7.830;2022-12-07T08:51:17;2.80;99.90
4207;DHT22;2117;47.972;7.830;2022-12-07T08:53:43;3.00;99.90
4207;DHT22;2117;47.972;7.830;2022-12-07T08:56:10;3.00;99.90
4207;DHT22;2117;47.972;7.830;2022-12-07T08:58:36;3.10;99.90
4207;DHT22;2117;47.972;7.830;2022-12-07T09:01:03;3.20;99.90
4207;DHT22;2117;47.972;7.830;2022-12-07T09:03:30;3.40;99.90
4207;DHT22;2117;47.972;7.830;2022-12-07T09:05:56;3.40;99.90
4207;DHT22;2117;47.972;7.830;2022-12-07T09:08:26;3.50;99.90
4207;DHT22;2117;47.972;7.830;2022-12-07T09:10:54;3.70;99.90
4207;DHT22;2117;47.972;7.830;2022-12-07T09:13:20;3.70;99.90
4207;DHT22;2117;47.972;7.830;2022-12-07T09:15:45;3.80;99.90
4207;DHT22;2117;47.972;7.830;2022-12-07T09:18:11;3.90;99.90
4207;DHT22;2117;47.972;7.830;2022-12-07T09:20:36;3.90;99.90
4207;DHT22;2117;47.972;7.830;2022-12-07T09:23:02;4.00;99.90
4207;DHT22;2117;47.972;7.830;2022-12-07T09:25:27;4.00;99.90
4207;DHT22;2117;47.972;7.830;2022-12-07T09:27:57;4.00;99.90
4207;DHT22;2117;47.972;7.830;2022-12-07T09:30:23;4.10;99.90
4207;DHT22;2117;47.972;7.830;2022-12-07T09:32:48;4.10;99.90
4207;DHT22;2117;47.972;7.830;2022-12-07T09:35:14;4.20;99.90
4207;DHT22;2117;47.972;7.830;2022-12-07T09:37:39;4.30;99.90
4207;DHT22;2117;47.972;7.830;2022-12-07T09:40:05;4.30;99.90
4207;DHT22;2117;47.972;7.830;2022-12-07T09:42:43;4.30;99.90
4207;DHT22;2117;47.972;7.830;2022-12-07T09:45:23;4.40;99.90
4207;DHT22;2117;47.972;7.830;2022-12-07T09:47:50;4.40;99.90
4207;DHT22;2117;47.972;7.830;2022-12-07T09:50:21;4.50;99.90
4207;DHT22;2117;47.972;7.830;2022-12-07T09:52:48;4.60;99.90
4207;DHT22;2117;47.972;7.830;2022-12-07T09:55:19;4.70;99.90
4207;DHT22;2117;47.972;7.830;2022-12-07T09:57:47;4.80;99.90
4207;DHT22;2117;47.972;7.830;2022-12-07T10:00:15;4.80;99.90
4207;DHT22;2117;47.972;7.830;2022-12-07T10:02:44;4.90;99.90
4207;DHT22;2117;47.972;7.830;2022-12-07T10:05:16;4.90;99.90
4207;DHT22;2117;47.972;7.830;2022-12-07T10:07:43;4.90;99.90
4207;DHT22;2117;47.972;7.830;2022-12-07T10:10:17;5.00;99.90
4207;DHT22;2117;47.972;7.830;2022-12-07T10:12:59;5.00;99.90
4207;DHT22;2117;47.972;7.830;2022-12-07T10:15:51;5.00;99.90
4207;DHT22;2117;47.972;7.830;2022-12-07T10:18:24;5.10;99.90
4207;DHT22;2117;47.972;7.830;2022-12-07T10:21:05;5.10;99.90
4207;DHT22;2117;47.972;7.830;2022-12-07T10:23:33;5.10;99.90
4207;DHT22;2117;47.972;7.830;2022-12-07T10:25:59;5.10;99.90
4207;DHT22;2117;47.972;7.830;2022-12-07T10:28:34;5.10;99.90
4207;DHT22;2117;47.972;7.830;2022-12-07T10:31:03;5.20;99.90
4207;DHT22;2117;47.972;7.830;2022-12-07T10:33:57;5.10;99.90
4207;DHT22;2117;47.972;7.830;2022-12-07T10:36:37;5.20;99.90
4207;DHT22;2117;47.972;7.830;2022-12-07T10:39:15;5.20;99.90
4207;DHT22;2117;47.972;7.830;2022-12-07T10:41:58;5.20;99.90
4207;DHT22;2117;47.972;7.830;2022-12-07T10:44:26;5.30;99.90
4207;DHT22;2117;47.972;7.830;2022-12-07T10:50:17;5.30;99.90
4207;DHT22;2117;47.972;7.830;2022-12-07T11:01:34;5.60;99.90
4207;DHT22;2117;47.972;7.830;2022-12-07T11:04:11;5.70;99.90
4207;DHT22;2117;47.972;7.830;2022-12-07T11:15:25;6.00;99.90
4207;DHT22;2117;47.972;7.830;2022-12-07T11:18:11;6.10;99.90
4207;DHT22;2117;47.972;7.830;2022-12-07T11:20:58;6.20;99.90
4207;DHT22;2117;47.972;7.830;2022-12-07T11:23:59;6.30;99.90
4207;DHT22;2117;47.972;7.830;2022-12-07T11:26:51;6.40;99.90
4207;DHT22;2117;47.972;7.830;2022-12-07T11:35:03;6.70;99.90
4207;DHT22;2117;47.972;7.830;2022-12-07T11:37:34;6.80;99.90
4207;DHT22;2117;47.972;7.830;2022-12-07T11:40:35;6.90;99.90
4207;DHT22;2117;47.972;7.830;2022-12-07T11:43:32;7.10;99.90
4207;DHT22;2117;47.972;7.830;2022-12-07T11:46:03;7.40;99.90
4207;DHT22;2117;47.972;7.830;2022-12-07T11:48:46;7.50;99.90
4207;DHT22;2117;47.972;7.830;2022-12-07T11:51:13;7.70;99.90
4207;DHT22;2117;47.972;7.830;2022-12-07T11:53:46;7.80;99.90
4207;DHT22;2117;47.972;7.830;2022-12-07T11:56:17;7.90;99.90
4207;DHT22;2117;47.972;7.830;2022-12-07T12:03:52;8.60;99.90
4207;DHT22;2117;47.972;7.830;2022-12-07T12:06:21;8.90;99.90
4207;DHT22;2117;47.972;7.830;2022-12-07T12:09:00;9.20;99.90
4207;DHT22;2117;47.972;7.830;2022-12-07T12:20:26;10.60;99.90
4207;DHT22;2117;47.972;7.830;2022-12-07T12:25:52;11.00;99.90
4207;DHT22;2117;47.972;7.830;2022-12-07T12:28:39;11.20;99.90
4207;DHT22;2117;47.972;7.830;2022-12-07T12:33:33;11.00;99.90
4207;DHT22;2117;47.972;7.830;2022-12-07T12:50:16;11.10;99.90
4207;DHT22;2117;47.972;7.830;2022-12-07T12:57:34;11.50;99.90
4207;DHT22;2117;47.972;7.830;2022-12-07T13:00:15;11.60;99.90
4207;DHT22;2117;47.972;7.830;2022-12-07T13:05:19;11.80;99.90
4207;DHT22;2117;47.972;7.830;2022-12-07T13:15:43;12.10;99.90
4207;DHT22;2117;47.972;7.830;2022-12-07T13:29:17;12.20;99.90
4207;DHT22;2117;47.972;7.830;2022-12-07T13:31:48;12.00;99.90
4207;DHT22;2117;47.972;7.830;2022-12-07T13:34:37;11.80;99.90
4207;DHT22;2117;47.972;7.830;2022-12-07T13:37:21;11.70;99.90
4207;DHT22;2117;47.972;7.830;2022-12-07T13:39:49;12.20;99.90
4207;DHT22;2117;47.972;7.830;2022-12-07T13:42:35;12.30;99.90
4207;DHT22;2117;47.972;7.830;2022-12-07T13:45:21;12.10;99.90
4207;DHT22;2117;47.972;7.830;2022-12-07T13:48:14;12.10;99.90
4207;DHT22;2117;47.972;7.830;2022-12-07T13:50:40;12.10;99.90
4207;DHT22;2117;47.972;7.830;2022-12-07T13:53:12;11.80;99.90
4207;DHT22;2117;47.972;7.830;2022-12-07T13:55:44;11.70;99.90
4207;DHT22;2117;47.972;7.830;2022-12-07T13:58:10;11.80;99.90
4207;DHT22;2117;47.972;7.830;2022-12-07T14:00:36;11.40;99.90
4207;DHT22;2117;47.972;7.830;2022-12-07T14:03:22;11.20;99.90
4207;DHT22;2117;47.972;7.830;2022-12-07T14:06:04;11.10;99.90
4207;DHT22;2117;47.972;7.830;2022-12-07T14:08:30;11.10;99.90
4207;DHT22;2117;47.972;7.830;2022-12-07T14:10:57;11.10;99.90
4207;DHT22;2117;47.972;7.830;2022-12-07T14:13:34;11.00;99.90
4207;DHT22;2117;47.972;7.830;2022-12-07T14:18:41;10.80;99.90
4207;DHT22;2117;47.972;7.830;2022-12-07T14:23:37;10.30;99.90
4207;DHT22;2117;47.972;7.830;2022-12-07T14:26:19;10.10;99.90
4207;DHT22;2117;47.972;7.830;2022-12-07T14:28:46;10.00;99.90
4207;DHT22;2117;47.972;7.830;2022-12-07T14:31:17;9.80;99.90
4207;DHT22;2117;47.972;7.830;2022-12-07T14:33:43;9.60;99.90
4207;DHT22;2117;47.972;7.830;2022-12-07T14:36:14;9.40;99.90
4207;DHT22;2117;47.972;7.830;2022-12-07T14:38:40;9.20;99.90
4207;DHT22;2117;47.972;7.830;2022-12-07T14:41:17;9.00;99.90
4207;DHT22;2117;47.972;7.830;2022-12-07T14:44:12;8.90;99.90
4207;DHT22;2117;47.972;7.830;2022-12-07T14:46:38;8.80;99.90
4207;DHT22;2117;47.972;7.830;2022-12-07T14:49:03;8.60;99.90
4207;DHT22;2117;47.972;7.830;2022-12-07T14:51:29;8.60;99.90
4207;DHT22;2117;47.972;7.830;2022-12-07T14:53:55;8.50;99.90
4207;DHT22;2117;47.972;7.830;2022-12-07T14:56:20;8.30;99.90
4207;DHT22;2117;47.972;7.830;2022-12-07T14:58:46;8.30;99.90
4207;DHT22;2117;47.972;7.830;2022-12-07T15:01:13;8.10;99.90
4207;DHT22;2117;47.972;7.830;2022-12-07T15:03:39;8.00;99.90
4207;DHT22;2117;47.972;7.830;2022-12-07T15:06:06;7.80;99.90
4207;DHT22;2117;47.972;7.830;2022-12-07T15:08:31;7.70;99.90
4207;DHT22;2117;47.972;7.830;2022-12-07T15:10:57;7.60;99.90
4207;DHT22;2117;47.972;7.830;2022-12-07T15:13:22;7.60;99.90
4207;DHT22;2117;47.972;7.830;2022-12-07T15:16:18;7.60;99.90
4207;DHT22;2117;47.972;7.830;2022-12-07T15:18:44;7.50;99.90
4207;DHT22;2117;47.972;7.830;2022-12-07T15:21:16;7.50;99.90
4207;DHT22;2117;47.972;7.830;2022-12-07T15:23:42;7.40;99.90
4207;DHT22;2117;47.972;7.830;2022-12-07T15:26:10;7.30;99.90
4207;DHT22;2117;47.972;7.830;2022-12-07T15:28:35;7.30;99.90
4207;DHT22;2117;47.972;7.830;2022-12-07T15:31:01;7.20;99.90
4207;DHT22;2117;47.972;7.830;2022-12-07T15:33:27;7.20;99.90
4207;DHT22;2117;47.972;7.830;2022-12-07T15:35:52;7.10;99.90
4207;DHT22;2117;47.972;7.830;2022-12-07T15:38:18;7.00;99.90
4207;DHT22;2117;47.972;7.830;2022-12-07T15:40:47;7.00;99.90
4207;DHT22;2117;47.972;7.830;2022-12-07T15:43:12;6.90;99.90
4207;DHT22;2117;47.972;7.830;2022-12-07T15:45:56;6.90;99.90
4207;DHT22;2117;47.972;7.830;2022-12-07T15:48:22;6.80;99.90
4207;DHT22;2117;47.972;7.830;2022-12-07T15:50:48;6.80;99.90
4207;DHT22;2117;47.972;7.830;2022-12-07T15:53:13;6.70;99.90
4207;DHT22;2117;47.972;7.830;2022-12-07T15:55:39;6.70;99.90
4207;DHT22;2117;47.972;7.830;2022-12-07T15:58:06;6.60;99.90
4207;DHT22;2117;47.972;7.830;2022-12-07T16:00:31;6.50;99.90
4207;DHT22;2117;47.972;7.830;2022-12-07T16:02:57;6.50;99.90
4207;DHT22;2117;47.972;7.830;2022-12-07T16:05:23;6.50;99.90
4207;DHT22;2117;47.972;7.830;2022-12-07T16:07:48;6.40;99.90
4207;DHT22;2117;47.972;7.830;2022-12-07T16:10:14;6.20;99.90
4207;DHT22;2117;47.972;7.830;2022-12-07T16:12:40;6.20;99.90
4207;DHT22;2117;47.972;7.830;2022-12-07T16:15:06;6.10;99.90
4207;DHT22;2117;47.972;7.830;2022-12-07T16:17:31;6.00;99.90
4207;DHT22;2117;47.972;7.830;2022-12-07T16:19:57;6.00;99.90
4207;DHT22;2117;47.972;7.830;2022-12-07T16:22:23;5.90;99.90
4207;DHT22;2117;47.972;7.830;2022-12-07T16:24:49;5.80;99.90
4207;DHT22;2117;47.972;7.830;2022-12-07T16:27:14;5.70;99.90
4207;DHT22;2117;47.972;7.830;2022-12-07T16:29:40;5.60;99.90
4207;DHT22;2117;47.972;7.830;2022-12-07T16:32:06;5.50;99.90
4207;DHT22;2117;47.972;7.830;2022-12-07T16:34:31;5.30;99.90
4207;DHT22;2117;47.972;7.830;2022-12-07T16:36:57;5.30;99.90
4207;DHT22;2117;47.972;7.830;2022-12-07T16:39:23;5.30;99.90
4207;DHT22;2117;47.972;7.830;2022-12-07T16:41:49;5.10;99.90
4207;DHT22;2117;47.972;7.830;2022-12-07T16:46:41;5.00;99.90
4207;DHT22;2117;47.972;7.830;2022-12-07T16:49:11;4.90;99.90
4207;DHT22;2117;47.972;7.830;2022-12-07T16:51:37;4.90;99.90
4207;DHT22;2117;47.972;7.830;2022-12-07T16:54:03;4.80;99.90
4207;DHT22;2117;47.972;7.830;2022-12-07T16:56:29;4.70;99.90
4207;DHT22;2117;47.972;7.830;2022-12-07T16:58:57;4.60;99.90
4207;DHT22;2117;47.972;7.830;2022-12-07T17:01:23;4.50;99.90
4207;DHT22;2117;47.972;7.830;2022-12-07T17:03:49;4.40;99.90
4207;DHT22;2117;47.972;7.830;2022-12-07T17:06:20;4.30;99.90
4207;DHT22;2117;47.972;7.830;2022-12-07T17:08:46;4.30;99.90
4207;DHT22;2117;47.972;7.830;2022-12-07T17:11:18;4.10;99.90
4207;DHT22;2117;47.972;7.830;2022-12-07T17:13:44;4.00;99.90
4207;DHT22;2117;47.972;7.830;2022-12-07T17:16:29;3.90;99.90
4207;DHT22;2117;47.972;7.830;2022-12-07T17:18:54;3.80;99.90
4207;DHT22;2117;47.972;7.830;2022-12-07T17:21:20;3.70;99.90
4207;DHT22;2117;47.972;7.830;2022-12-07T17:23:46;3.70;99.90
4207;DHT22;2117;47.972;7.830;2022-12-07T17:26:14;3.60;99.90
4207;DHT22;2117;47.972;7.830;2022-12-07T17:28:41;3.50;99.90
4207;DHT22;2117;47.972;7.830;2022-12-07T17:31:09;3.50;99.90
4207;DHT22;2117;47.972;7.830;2022-12-07T17:33:35;3.40;99.90
4207;DHT22;2117;47.972;7.830;2022-12-07T17:36:22;3.30;99.90
4207;DHT22;2117;47.972;7.830;2022-12-07T17:38:48;3.30;99.90
4207;DHT22;2117;47.972;7.830;2022-12-07T17:41:17;3.30;99.90
4207;DHT22;2117;47.972;7.830;2022-12-07T17:44:04;3.30;99.90
4207;DHT22;2117;47.972;7.830;2022-12-07T17:48:57;3.30;99.90
4207;DHT22;2117;47.972;7.830;2022-12-07T17:51:24;3.20;99.90
4207;DHT22;2117;47.972;7.830;2022-12-07T17:54:09;3.10;99.90
4207;DHT22;2117;47.972;7.830;2022-12-07T17:56:35;3.10;99.90
4207;DHT22;2117;47.972;7.830;2022-12-07T17:59:01;3.00;99.90
4207;DHT22;2117;47.972;7.830;2022-12-07T18:01:27;3.00;99.90
4207;DHT22;2117;47.972;7.830;2022-12-07T18:03:52;3.00;99.90
4207;DHT22;2117;47.972;7.830;2022-12-07T18:06:18;3.00;99.90
4207;DHT22;2117;47.972;7.830;2022-12-07T18:08:44;2.90;99.90
4207;DHT22;2117;47.972;7.830;2022-12-07T18:11:10;2.90;99.90
4207;DHT22;2117;47.972;7.830;2022-12-07T18:13:35;2.80;99.90
4207;DHT22;2117;47.972;7.830;2022-12-07T18:16:09;2.80;99.90
4207;DHT22;2117;47.972;7.830;2022-12-07T18:18:36;2.70;99.90
4207;DHT22;2117;47.972;7.830;2022-12-07T18:21:04;2.90;99.90
4207;DHT22;2117;47.972;7.830;2022-12-07T18:23:29;3.60;99.90
4207;DHT22;2117;47.972;7.830;2022-12-07T18:25:55;4.40;99.90
4207;DHT22;2117;47.972;7.830;2022-12-07T18:28:21;4.60;99.90
4207;DHT22;2117;47.972;7.830;2022-12-07T18:30:47;4.50;99.90
4207;DHT22;2117;47.972;7.830;2022-12-07T18:33:16;4.20;99.90
4207;DHT22;2117;47.972;7.830;2022-12-07T18:35:42;3.80;99.90
4207;DHT22;2117;47.972;7.830;2022-12-07T18:38:08;3.60;99.90
4207;DHT22;2117;47.972;7.830;2022-12-07T18:40:37;3.50;99.90
4207;DHT22;2117;47.972;7.830;2022-12-07T18:43:03;3.50;99.90
4207;DHT22;2117;47.972;7.830;2022-12-07T18:45:28;3.40;99.90
4207;DHT22;2117;47.972;7.830;2022-12-07T18:47:54;3.30;99.90
4207;DHT22;2117;47.972;7.830;2022-12-07T18:50:20;3.20;99.90
4207;DHT22;2117;47.972;7.830;2022-12-07T18:52:46;3.20;99.90
4207;DHT22;2117;47.972;7.830;2022-12-07T18:55:12;3.10;99.90
4207;DHT22;2117;47.972;7.830;2022-12-07T18:57:37;3.00;99.90
4207;DHT22;2117;47.972;7.830;2022-12-07T19:00:04;3.00;99.90
4207;DHT22;2117;47.972;7.830;2022-12-07T19:02:29;2.90;99.90
4207;DHT22;2117;47.972;7.830;2022-12-07T19:04:55;2.80;99.90
4207;DHT22;2117;47.972;7.830;2022-12-07T19:07:21;2.80;99.90
4207;DHT22;2117;47.972;7.830;2022-12-07T19:09:46;2.80;99.90
4207;DHT22;2117;47.972;7.830;2022-12-07T19:12:14;2.70;99.90
4207;DHT22;2117;47.972;7.830;2022-12-07T19:14:40;2.60;99.90
4207;DHT22;2117;47.972;7.830;2022-12-07T19:17:11;2.60;99.90
4207;DHT22;2117;47.972;7.830;2022-12-07T19:19:42;2.50;99.90
4207;DHT22;2117;47.972;7.830;2022-12-07T19:22:11;2.50;99.90
4207;DHT22;2117;47.972;7.830;2022-12-07T19:24:37;2.40;99.90
4207;DHT22;2117;47.972;7.830;2022-12-07T19:27:04;2.40;99.90
4207;DHT22;2117;47.972;7.830;2022-12-07T19:29:32;2.30;99.90
4207;DHT22;2117;47.972;7.830;2022-12-07T19:31:59;2.30;99.90
4207;DHT22;2117;47.972;7.830;2022-12-07T19:34:25;2.20;99.90
4207;DHT22;2117;47.972;7.830;2022-12-07T19:36:50;2.20;99.90
4207;DHT22;2117;47.972;7.830;2022-12-07T19:39:16;2.20;99.90
4207;DHT22;2117;47.972;7.830;2022-12-07T19:41:45;2.20;99.90
4207;DHT22;2117;47.972;7.830;2022-12-07T19:44:14;2.20;99.90
4207;DHT22;2117;47.972;7.830;2022-12-07T19:46:41;2.20;99.90
4207;DHT22;2117;47.972;7.830;2022-12-07T19:49:07;2.20;99.90
4207;DHT22;2117;47.972;7.830;2022-12-07T19:51:33;2.00;99.90
4207;DHT22;2117;47.972;7.830;2022-12-07T19:53:59;2.00;99.90
4207;DHT22;2117;47.972;7.830;2022-12-07T19:56:27;2.00;99.90
4207;DHT22;2117;47.972;7.830;2022-12-07T19:58:54;2.00;99.90
4207;DHT22;2117;47.972;7.830;2022-12-07T20:01:20;2.00;99.90
4207;DHT22;2117;47.972;7.830;2022-12-07T20:03:46;2.10;99.90
4207;DHT22;2117;47.972;7.830;2022-12-07T20:06:17;2.00;99.90
4207;DHT22;2117;47.972;7.830;2022-12-07T20:08:45;2.00;99.90
4207;DHT22;2117;47.972;7.830;2022-12-07T20:11:11;2.00;99.90
4207;DHT22;2117;47.972;7.830;2022-12-07T20:13:55;2.00;99.90
4207;DHT22;2117;47.972;7.830;2022-12-07T20:16:21;2.00;99.90
4207;DHT22;2117;47.972;7.830;2022-12-07T20:18:47;1.90;99.90
4207;DHT22;2117;47.972;7.830;2022-12-07T20:21:13;1.90;99.90
4207;DHT22;2117;47.972;7.830;2022-12-07T20:23:39;1.90;99.90
4207;DHT22;2117;47.972;7.830;2022-12-07T20:26:08;1.90;99.90
4207;DHT22;2117;47.972;7.830;2022-12-07T20:28:34;2.00;99.90
4207;DHT22;2117;47.972;7.830;2022-12-07T20:31:01;2.10;99.90
4207;DHT22;2117;47.972;7.830;2022-12-07T20:33:26;2.10;99.90
4207;DHT22;2117;47.972;7.830;2022-12-07T20:35:59;2.00;99.90
4207;DHT22;2117;47.972;7.830;2022-12-07T20:38:25;1.90;99.90
4207;DHT22;2117;47.972;7.830;2022-12-07T20:40:51;1.90;99.90
4207;DHT22;2117;47.972;7.830;2022-12-07T20:43:17;1.80;99.90
4207;DHT22;2117;47.972;7.830;2022-12-07T20:45:44;1.70;99.90
4207;DHT22;2117;47.972;7.830;2022-12-07T20:48:10;1.70;99.90
4207;DHT22;2117;47.972;7.830;2022-12-07T20:50:35;1.70;99.90
4207;DHT22;2117;47.972;7.830;2022-12-07T20:53:01;1.60;99.90
4207;DHT22;2117;47.972;7.830;2022-12-07T20:55:27;1.60;99.90
4207;DHT22;2117;47.972;7.830;2022-12-07T20:57:52;1.60;99.90
4207;DHT22;2117;47.972;7.830;2022-12-07T21:00:18;1.50;99.90
4207;DHT22;2117;47.972;7.830;2022-12-07T21:02:44;1.50;99.90
4207;DHT22;2117;47.972;7.830;2022-12-07T21:05:09;1.40;99.90
4207;DHT22;2117;47.972;7.830;2022-12-07T21:07:36;1.40;99.90
4207;DHT22;2117;47.972;7.830;2022-12-07T21:10:02;1.40;99.90